sensor_id;sensor_type;location;lat;lon;timestamp;P1;durP1;ratioP1;P2;durP2;ratioP2
3801;SDS011;1916;51.798;12.246;2022-11-15T00:00:58;36.47;;;19.60;;
3801;SDS011;1916;51.798;12.246;2022-11-15T00:03:26;35.27;;;21.03;;
3801;SDS011;1916;51.798;12.246;2022-11-15T00:05:48;35.10;;;19.10;;
3801;SDS011;1916;51.798;12.246;2022-11-15T00:08:09;31.77;;;19.73;;
3801;SDS011;1916;51.798;12.246;2022-11-15T00:10:30;29.40;;;18.40;;
3801;SDS011;1916;51.798;12.246;2022-11-15T00:12:50;29.93;;;18.93;;
3801;SDS011;1916;51.798;12.246;2022-11-15T00:15:11;35.13;;;20.10;;
3801;SDS011;1916;51.798;12.246;2022-11-15T00:17:32;37.27;;;20.50;;
3801;SDS011;1916;51.798;12.246;2022-11-15T00:19:53;31.80;;;18.93;;
3801;SDS011;1916;51.798;12.246;2022-11-15T00:22:13;33.33;;;19.07;;
3801;SDS011;1916;51.798;12.246;2022-11-15T00:24:34;31.40;;;18.67;;
3801;SDS011;1916;51.798;12.246;2022-11-15T00:26:55;33.43;;;19.00;;
3801;SDS011;1916;51.798;12.246;2022-11-15T00:29:15;36.23;;;18.83;;
3801;SDS011;1916;51.798;12.246;2022-11-15T00:31:36;30.77;;;17.90;;
3801;SDS011;1916;51.798;12.246;2022-11-15T00:33:58;34.30;;;20.23;;
3801;SDS011;1916;51.798;12.246;2022-11-15T00:36:18;38.47;;;20.73;;
3801;SDS011;1916;51.798;12.246;2022-11-15T00:38:39;39.90;;;21.70;;
3801;SDS011;1916;51.798;12.246;2022-11-15T00:41:01;41.17;;;21.70;;
3801;SDS011;1916;51.798;12.246;2022-11-15T00:43:28;39.30;;;21.60;;
3801;SDS011;1916;51.798;12.246;2022-11-15T00:45:50;48.50;;;22.37;;
3801;SDS011;1916;51.798;12.246;2022-11-15T00:48:11;38.57;;;20.90;;
3801;SDS011;1916;51.798;12.246;2022-11-15T00:50:31;37.83;;;20.00;;
3801;SDS011;1916;51.798;12.246;2022-11-15T00:52:52;37.50;;;19.50;;
3801;SDS011;1916;51.798;12.246;2022-11-15T00:55:16;37.90;;;20.77;;
3801;SDS011;1916;51.798;12.246;2022-11-15T00:57:37;38.07;;;20.87;;
3801;SDS011;1916;51.798;12.246;2022-11-15T00:59:58;42.73;;;22.97;;
3801;SDS011;1916;51.798;12.246;2022-11-15T01:02:18;41.07;;;21.37;;
3801;SDS011;1916;51.798;12.246;2022-11-15T01:04:39;37.00;;;21.80;;
3801;SDS011;1916;51.798;12.246;2022-11-15T01:06:59;44.03;;;22.23;;
3801;SDS011;1916;51.798;12.246;2022-11-15T01:09:20;34.97;;;20.17;;
3801;SDS011;1916;51.798;12.246;2022-11-15T01:11:41;34.57;;;19.87;;
3801;SDS011;1916;51.798;12.246;2022-11-15T01:14:02;34.77;;;20.10;;
3801;SDS011;1916;51.798;12.246;2022-11-15T01:16:22;29.00;;;18.30;;
3801;SDS011;1916;51.798;12.246;2022-11-15T01:18:44;31.17;;;19.27;;
3801;SDS011;1916;51.798;12.246;2022-11-15T01:21:06;29.10;;;17.60;;
3801;SDS011;1916;51.798;12.246;2022-11-15T01:23:28;33.10;;;18.73;;
3801;SDS011;1916;51.798;12.246;2022-11-15T01:25:50;33.00;;;18.27;;
3801;SDS011;1916;51.798;12.246;2022-11-15T01:28:11;35.53;;;18.67;;
3801;SDS011;1916;51.798;12.246;2022-11-15T01:30:31;29.43;;;16.60;;
3801;SDS011;1916;51.798;12.246;2022-11-15T01:32:52;26.30;;;16.10;;
3801;SDS011;1916;51.798;12.246;2022-11-15T01:35:13;26.63;;;15.73;;
3801;SDS011;1916;51.798;12.246;2022-11-15T01:37:34;28.70;;;17.80;;
3801;SDS011;1916;51.798;12.246;2022-11-15T01:39:55;28.43;;;16.50;;
3801;SDS011;1916;51.798;12.246;2022-11-15T01:42:16;27.33;;;17.47;;
3801;SDS011;1916;51.798;12.246;2022-11-15T01:44:38;28.77;;;16.60;;
3801;SDS011;1916;51.798;12.246;2022-11-15T01:49:35;25.40;;;16.10;;
3801;SDS011;1916;51.798;12.246;2022-11-15T01:51:56;25.77;;;16.20;;
3801;SDS011;1916;51.798;12.246;2022-11-15T01:54:18;26.17;;;16.53;;
3801;SDS011;1916;51.798;12.246;2022-11-15T01:56:43;34.17;;;17.90;;
3801;SDS011;1916;51.798;12.246;2022-11-15T01:59:06;28.20;;;17.30;;
3801;SDS011;1916;51.798;12.246;2022-11-15T02:01:28;29.10;;;17.30;;
3801;SDS011;1916;51.798;12.246;2022-11-15T02:03:52;26.80;;;16.13;;
3801;SDS011;1916;51.798;12.246;2022-11-15T02:06:16;32.70;;;16.07;;
3801;SDS011;1916;51.798;12.246;2022-11-15T02:08:37;32.47;;;15.80;;
3801;SDS011;1916;51.798;12.246;2022-11-15T02:10:58;26.10;;;16.17;;
3801;SDS011;1916;51.798;12.246;2022-11-15T02:13:18;29.30;;;15.67;;
3801;SDS011;1916;51.798;12.246;2022-11-15T02:15:40;26.30;;;16.53;;
3801;SDS011;1916;51.798;12.246;2022-11-15T02:18:15;27.57;;;15.90;;
3801;SDS011;1916;51.798;12.246;2022-11-15T02:20:51;23.00;;;15.40;;
3801;SDS011;1916;51.798;12.246;2022-11-15T02:29:09;31.27;;;15.13;;
3801;SDS011;1916;51.798;12.246;2022-11-15T02:34:22;26.67;;;16.47;;
3801;SDS011;1916;51.798;12.246;2022-11-15T02:39:46;26.03;;;16.17;;
3801;SDS011;1916;51.798;12.246;2022-11-15T02:45:03;28.30;;;16.50;;
3801;SDS011;1916;51.798;12.246;2022-11-15T02:47:25;22.80;;;14.70;;
3801;SDS011;1916;51.798;12.246;2022-11-15T02:49:49;25.83;;;15.97;;
3801;SDS011;1916;51.798;12.246;2022-11-15T02:52:14;27.63;;;16.20;;
3801;SDS011;1916;51.798;12.246;2022-11-15T02:54:38;26.97;;;15.90;;
3801;SDS011;1916;51.798;12.246;2022-11-15T02:57:03;26.40;;;15.53;;
3801;SDS011;1916;51.798;12.246;2022-11-15T03:02:40;22.20;;;15.30;;
3801;SDS011;1916;51.798;12.246;2022-11-15T03:05:19;27.00;;;15.53;;
3801;SDS011;1916;51.798;12.246;2022-11-15T03:07:53;25.60;;;14.90;;
3801;SDS011;1916;51.798;12.246;2022-11-15T03:13:10;24.90;;;15.30;;
3801;SDS011;1916;51.798;12.246;2022-11-15T03:15:38;26.60;;;15.70;;
3801;SDS011;1916;51.798;12.246;2022-11-15T03:20:44;23.10;;;14.70;;
3801;SDS011;1916;51.798;12.246;2022-11-15T03:23:06;26.70;;;15.23;;
3801;SDS011;1916;51.798;12.246;2022-11-15T03:25:28;26.97;;;15.83;;
3801;SDS011;1916;51.798;12.246;2022-11-15T03:27:53;26.73;;;15.77;;
3801;SDS011;1916;51.798;12.246;2022-11-15T03:30:17;20.07;;;13.47;;
3801;SDS011;1916;51.798;12.246;2022-11-15T03:32:40;26.30;;;16.10;;
3801;SDS011;1916;51.798;12.246;2022-11-15T03:35:11;20.87;;;14.50;;
3801;SDS011;1916;51.798;12.246;2022-11-15T03:37:48;29.27;;;15.47;;
3801;SDS011;1916;51.798;12.246;2022-11-15T03:40:12;24.13;;;16.20;;
3801;SDS011;1916;51.798;12.246;2022-11-15T03:45:18;24.40;;;15.63;;
3801;SDS011;1916;51.798;12.246;2022-11-15T03:47:47;22.90;;;13.73;;
3801;SDS011;1916;51.798;12.246;2022-11-15T03:50:14;26.70;;;15.10;;
3801;SDS011;1916;51.798;12.246;2022-11-15T03:52:37;24.10;;;13.50;;
3801;SDS011;1916;51.798;12.246;2022-11-15T03:54:57;24.10;;;14.20;;
3801;SDS011;1916;51.798;12.246;2022-11-15T03:57:21;23.43;;;13.50;;
3801;SDS011;1916;51.798;12.246;2022-11-15T03:59:41;23.20;;;14.63;;
3801;SDS011;1916;51.798;12.246;2022-11-15T04:02:02;20.70;;;13.47;;
3801;SDS011;1916;51.798;12.246;2022-11-15T04:04:23;21.20;;;13.20;;
3801;SDS011;1916;51.798;12.246;2022-11-15T04:06:44;22.10;;;13.83;;
3801;SDS011;1916;51.798;12.246;2022-11-15T04:09:05;23.27;;;13.57;;
3801;SDS011;1916;51.798;12.246;2022-11-15T04:11:25;21.37;;;14.13;;
3801;SDS011;1916;51.798;12.246;2022-11-15T04:13:46;22.60;;;13.97;;
3801;SDS011;1916;51.798;12.246;2022-11-15T04:16:07;26.53;;;13.27;;
3801;SDS011;1916;51.798;12.246;2022-11-15T04:18:28;22.53;;;15.27;;
3801;SDS011;1916;51.798;12.246;2022-11-15T04:20:48;26.77;;;15.80;;
3801;SDS011;1916;51.798;12.246;2022-11-15T04:23:28;27.27;;;15.30;;
3801;SDS011;1916;51.798;12.246;2022-11-15T04:26:27;28.90;;;15.20;;
3801;SDS011;1916;51.798;12.246;2022-11-15T04:28:47;23.27;;;14.13;;
3801;SDS011;1916;51.798;12.246;2022-11-15T04:31:27;26.00;;;13.60;;
3801;SDS011;1916;51.798;12.246;2022-11-15T04:33:48;18.60;;;13.20;;
3801;SDS011;1916;51.798;12.246;2022-11-15T04:36:09;22.50;;;13.10;;
3801;SDS011;1916;51.798;12.246;2022-11-15T04:38:48;21.63;;;12.97;;
3801;SDS011;1916;51.798;12.246;2022-11-15T04:41:09;27.20;;;14.83;;
3801;SDS011;1916;51.798;12.246;2022-11-15T04:43:30;25.43;;;14.80;;
3801;SDS011;1916;51.798;12.246;2022-11-15T04:45:51;25.73;;;15.57;;
3801;SDS011;1916;51.798;12.246;2022-11-15T04:48:12;24.53;;;15.40;;
3801;SDS011;1916;51.798;12.246;2022-11-15T04:50:33;23.23;;;14.73;;
3801;SDS011;1916;51.798;12.246;2022-11-15T04:52:54;23.50;;;14.33;;
3801;SDS011;1916;51.798;12.246;2022-11-15T04:55:14;27.37;;;13.73;;
3801;SDS011;1916;51.798;12.246;2022-11-15T04:57:36;25.93;;;14.70;;
3801;SDS011;1916;51.798;12.246;2022-11-15T04:59:57;21.30;;;13.40;;
3801;SDS011;1916;51.798;12.246;2022-11-15T05:02:17;26.27;;;13.70;;
3801;SDS011;1916;51.798;12.246;2022-11-15T05:04:38;24.83;;;13.90;;
3801;SDS011;1916;51.798;12.246;2022-11-15T05:06:59;23.47;;;14.30;;
3801;SDS011;1916;51.798;12.246;2022-11-15T05:09:21;27.63;;;16.47;;
3801;SDS011;1916;51.798;12.246;2022-11-15T05:11:41;23.80;;;13.80;;
3801;SDS011;1916;51.798;12.246;2022-11-15T05:14:02;20.90;;;13.17;;
3801;SDS011;1916;51.798;12.246;2022-11-15T05:16:23;20.73;;;13.10;;
3801;SDS011;1916;51.798;12.246;2022-11-15T05:18:44;22.37;;;13.63;;
3801;SDS011;1916;51.798;12.246;2022-11-15T05:21:05;19.63;;;13.40;;
3801;SDS011;1916;51.798;12.246;2022-11-15T05:23:27;23.50;;;14.13;;
3801;SDS011;1916;51.798;12.246;2022-11-15T05:25:48;22.20;;;13.00;;
3801;SDS011;1916;51.798;12.246;2022-11-15T05:28:09;21.97;;;12.57;;
3801;SDS011;1916;51.798;12.246;2022-11-15T05:30:30;20.97;;;12.60;;
3801;SDS011;1916;51.798;12.246;2022-11-15T05:32:51;22.47;;;12.47;;
3801;SDS011;1916;51.798;12.246;2022-11-15T05:35:34;22.77;;;13.57;;
3801;SDS011;1916;51.798;12.246;2022-11-15T05:38:11;25.07;;;14.00;;
3801;SDS011;1916;51.798;12.246;2022-11-15T05:40:32;22.30;;;13.97;;
3801;SDS011;1916;51.798;12.246;2022-11-15T05:42:52;21.07;;;12.40;;
3801;SDS011;1916;51.798;12.246;2022-11-15T05:45:13;22.33;;;13.17;;
3801;SDS011;1916;51.798;12.246;2022-11-15T05:47:34;21.20;;;13.10;;
3801;SDS011;1916;51.798;12.246;2022-11-15T05:49:57;19.67;;;12.07;;
3801;SDS011;1916;51.798;12.246;2022-11-15T05:52:19;20.60;;;12.13;;
3801;SDS011;1916;51.798;12.246;2022-11-15T05:54:41;19.47;;;12.40;;
3801;SDS011;1916;51.798;12.246;2022-11-15T05:57:02;20.27;;;13.30;;
3801;SDS011;1916;51.798;12.246;2022-11-15T05:59:24;19.33;;;11.87;;
3801;SDS011;1916;51.798;12.246;2022-11-15T06:01:45;22.47;;;14.40;;
3801;SDS011;1916;51.798;12.246;2022-11-15T06:04:05;15.60;;;10.70;;
3801;SDS011;1916;51.798;12.246;2022-11-15T06:06:27;28.10;;;11.63;;
3801;SDS011;1916;51.798;12.246;2022-11-15T06:08:48;20.67;;;11.87;;
3801;SDS011;1916;51.798;12.246;2022-11-15T06:11:09;16.97;;;10.90;;
3801;SDS011;1916;51.798;12.246;2022-11-15T06:13:30;17.37;;;11.10;;
3801;SDS011;1916;51.798;12.246;2022-11-15T06:15:52;16.13;;;10.97;;
3801;SDS011;1916;51.798;12.246;2022-11-15T06:18:18;23.33;;;12.80;;
3801;SDS011;1916;51.798;12.246;2022-11-15T06:20:39;21.30;;;12.43;;
3801;SDS011;1916;51.798;12.246;2022-11-15T06:23:00;19.27;;;13.40;;
3801;SDS011;1916;51.798;12.246;2022-11-15T06:25:23;19.23;;;13.30;;
3801;SDS011;1916;51.798;12.246;2022-11-15T06:27:44;23.20;;;13.40;;
3801;SDS011;1916;51.798;12.246;2022-11-15T06:30:04;23.03;;;11.70;;
3801;SDS011;1916;51.798;12.246;2022-11-15T06:32:26;21.60;;;13.00;;
3801;SDS011;1916;51.798;12.246;2022-11-15T06:34:46;18.30;;;11.60;;
3801;SDS011;1916;51.798;12.246;2022-11-15T06:37:07;20.53;;;13.17;;
3801;SDS011;1916;51.798;12.246;2022-11-15T06:39:28;24.47;;;12.60;;
3801;SDS011;1916;51.798;12.246;2022-11-15T06:41:48;17.03;;;12.00;;
3801;SDS011;1916;51.798;12.246;2022-11-15T06:44:09;20.53;;;12.73;;
3801;SDS011;1916;51.798;12.246;2022-11-15T06:46:30;19.57;;;11.17;;
3801;SDS011;1916;51.798;12.246;2022-11-15T06:48:51;22.10;;;11.47;;
3801;SDS011;1916;51.798;12.246;2022-11-15T06:51:12;20.10;;;11.53;;
3801;SDS011;1916;51.798;12.246;2022-11-15T06:53:33;17.83;;;11.27;;
3801;SDS011;1916;51.798;12.246;2022-11-15T06:55:57;21.30;;;11.77;;
3801;SDS011;1916;51.798;12.246;2022-11-15T06:58:20;22.67;;;13.20;;
3801;SDS011;1916;51.798;12.246;2022-11-15T07:00:41;21.40;;;12.37;;
3801;SDS011;1916;51.798;12.246;2022-11-15T07:03:02;16.60;;;11.37;;
3801;SDS011;1916;51.798;12.246;2022-11-15T07:05:23;20.07;;;11.70;;
3801;SDS011;1916;51.798;12.246;2022-11-15T07:07:50;21.10;;;11.63;;
3801;SDS011;1916;51.798;12.246;2022-11-15T07:10:11;18.87;;;12.80;;
3801;SDS011;1916;51.798;12.246;2022-11-15T07:12:32;21.67;;;12.53;;
3801;SDS011;1916;51.798;12.246;2022-11-15T07:14:53;17.70;;;11.80;;
3801;SDS011;1916;51.798;12.246;2022-11-15T07:17:14;17.53;;;11.90;;
3801;SDS011;1916;51.798;12.246;2022-11-15T07:19:35;19.53;;;12.27;;
3801;SDS011;1916;51.798;12.246;2022-11-15T07:21:55;20.10;;;13.40;;
3801;SDS011;1916;51.798;12.246;2022-11-15T07:24:16;17.50;;;12.37;;
3801;SDS011;1916;51.798;12.246;2022-11-15T07:26:37;25.33;;;13.93;;
3801;SDS011;1916;51.798;12.246;2022-11-15T07:28:57;28.03;;;13.60;;
3801;SDS011;1916;51.798;12.246;2022-11-15T07:31:18;21.03;;;11.40;;
3801;SDS011;1916;51.798;12.246;2022-11-15T07:33:39;17.47;;;12.90;;
3801;SDS011;1916;51.798;12.246;2022-11-15T07:36:00;22.40;;;12.00;;
3801;SDS011;1916;51.798;12.246;2022-11-15T07:38:23;19.10;;;13.27;;
3801;SDS011;1916;51.798;12.246;2022-11-15T07:40:44;18.70;;;12.23;;
3801;SDS011;1916;51.798;12.246;2022-11-15T07:43:06;18.20;;;11.70;;
3801;SDS011;1916;51.798;12.246;2022-11-15T07:45:28;19.27;;;11.60;;
3801;SDS011;1916;51.798;12.246;2022-11-15T07:47:48;19.70;;;10.43;;
3801;SDS011;1916;51.798;12.246;2022-11-15T07:50:10;14.37;;;10.40;;
3801;SDS011;1916;51.798;12.246;2022-11-15T07:52:30;16.03;;;10.67;;
3801;SDS011;1916;51.798;12.246;2022-11-15T07:54:51;14.77;;;10.20;;
3801;SDS011;1916;51.798;12.246;2022-11-15T07:57:12;13.70;;;9.90;;
3801;SDS011;1916;51.798;12.246;2022-11-15T07:59:33;12.23;;;9.10;;
3801;SDS011;1916;51.798;12.246;2022-11-15T08:01:55;14.27;;;9.43;;
3801;SDS011;1916;51.798;12.246;2022-11-15T08:04:16;12.07;;;8.50;;
3801;SDS011;1916;51.798;12.246;2022-11-15T08:06:37;13.37;;;9.10;;
3801;SDS011;1916;51.798;12.246;2022-11-15T08:08:57;11.93;;;9.13;;
3801;SDS011;1916;51.798;12.246;2022-11-15T08:11:18;10.97;;;8.63;;
3801;SDS011;1916;51.798;12.246;2022-11-15T08:13:39;11.83;;;8.77;;
3801;SDS011;1916;51.798;12.246;2022-11-15T08:16:00;13.50;;;9.10;;
3801;SDS011;1916;51.798;12.246;2022-11-15T08:18:22;12.60;;;8.23;;
3801;SDS011;1916;51.798;12.246;2022-11-15T08:20:43;12.03;;;8.23;;
3801;SDS011;1916;51.798;12.246;2022-11-15T08:23:04;11.00;;;7.90;;
3801;SDS011;1916;51.798;12.246;2022-11-15T08:25:25;11.90;;;8.30;;
3801;SDS011;1916;51.798;12.246;2022-11-15T08:27:47;9.77;;;7.73;;
3801;SDS011;1916;51.798;12.246;2022-11-15T08:30:11;9.60;;;8.40;;
3801;SDS011;1916;51.798;12.246;2022-11-15T08:32:32;11.43;;;7.90;;
3801;SDS011;1916;51.798;12.246;2022-11-15T08:34:53;12.90;;;8.80;;
3801;SDS011;1916;51.798;12.246;2022-11-15T08:37:14;13.17;;;8.27;;
3801;SDS011;1916;51.798;12.246;2022-11-15T08:39:35;13.67;;;8.93;;
3801;SDS011;1916;51.798;12.246;2022-11-15T08:41:56;15.60;;;8.53;;
3801;SDS011;1916;51.798;12.246;2022-11-15T08:44:17;13.10;;;9.10;;
3801;SDS011;1916;51.798;12.246;2022-11-15T08:46:38;12.13;;;9.37;;
3801;SDS011;1916;51.798;12.246;2022-11-15T08:48:59;10.77;;;8.77;;
3801;SDS011;1916;51.798;12.246;2022-11-15T08:51:19;12.27;;;8.93;;
3801;SDS011;1916;51.798;12.246;2022-11-15T08:53:41;11.10;;;8.53;;
3801;SDS011;1916;51.798;12.246;2022-11-15T08:56:02;10.63;;;8.10;;
3801;SDS011;1916;51.798;12.246;2022-11-15T08:58:23;11.20;;;7.20;;
3801;SDS011;1916;51.798;12.246;2022-11-15T09:00:44;12.23;;;8.37;;
3801;SDS011;1916;51.798;12.246;2022-11-15T09:03:05;8.50;;;7.07;;
3801;SDS011;1916;51.798;12.246;2022-11-15T09:05:26;10.03;;;7.60;;
3801;SDS011;1916;51.798;12.246;2022-11-15T09:07:47;12.30;;;7.77;;
3801;SDS011;1916;51.798;12.246;2022-11-15T09:10:08;14.53;;;8.57;;
3801;SDS011;1916;51.798;12.246;2022-11-15T09:12:29;13.10;;;7.50;;
3801;SDS011;1916;51.798;12.246;2022-11-15T09:14:49;9.30;;;7.20;;
3801;SDS011;1916;51.798;12.246;2022-11-15T09:17:10;10.57;;;6.83;;
3801;SDS011;1916;51.798;12.246;2022-11-15T09:19:31;12.23;;;7.43;;
3801;SDS011;1916;51.798;12.246;2022-11-15T09:21:52;11.50;;;8.00;;
3801;SDS011;1916;51.798;12.246;2022-11-15T09:24:13;9.00;;;6.83;;
3801;SDS011;1916;51.798;12.246;2022-11-15T09:26:34;9.53;;;6.93;;
3801;SDS011;1916;51.798;12.246;2022-11-15T09:28:54;8.17;;;7.20;;
3801;SDS011;1916;51.798;12.246;2022-11-15T09:31:15;10.53;;;7.67;;
3801;SDS011;1916;51.798;12.246;2022-11-15T09:33:44;10.13;;;6.87;;
3801;SDS011;1916;51.798;12.246;2022-11-15T09:36:06;10.60;;;7.20;;
3801;SDS011;1916;51.798;12.246;2022-11-15T09:38:28;8.23;;;7.43;;
3801;SDS011;1916;51.798;12.246;2022-11-15T09:40:52;11.40;;;7.77;;
3801;SDS011;1916;51.798;12.246;2022-11-15T09:46:01;9.90;;;6.97;;
3801;SDS011;1916;51.798;12.246;2022-11-15T09:51:30;11.97;;;6.93;;
3801;SDS011;1916;51.798;12.246;2022-11-15T09:54:20;11.20;;;6.83;;
3801;SDS011;1916;51.798;12.246;2022-11-15T09:56:32;9.90;;;7.00;;
3801;SDS011;1916;51.798;12.246;2022-11-15T09:58:39;12.20;;;7.90;;
3801;SDS011;1916;51.798;12.246;2022-11-15T10:00:48;9.90;;;7.17;;
3801;SDS011;1916;51.798;12.246;2022-11-15T10:03:13;11.57;;;7.60;;
3801;SDS011;1916;51.798;12.246;2022-11-15T10:05:18;13.70;;;7.70;;
3801;SDS011;1916;51.798;12.246;2022-11-15T10:07:25;11.97;;;6.93;;
3801;SDS011;1916;51.798;12.246;2022-11-15T10:09:35;9.70;;;7.00;;
3801;SDS011;1916;51.798;12.246;2022-11-15T10:11:41;7.70;;;6.60;;
3801;SDS011;1916;51.798;12.246;2022-11-15T10:13:44;11.83;;;7.17;;
3801;SDS011;1916;51.798;12.246;2022-11-15T10:15:49;10.23;;;7.30;;
3801;SDS011;1916;51.798;12.246;2022-11-15T10:18:06;7.60;;;6.37;;
3801;SDS011;1916;51.798;12.246;2022-11-15T10:20:24;12.47;;;6.80;;
3801;SDS011;1916;51.798;12.246;2022-11-15T10:22:47;9.47;;;6.40;;
3801;SDS011;1916;51.798;12.246;2022-11-15T10:24:58;9.77;;;5.80;;
3801;SDS011;1916;51.798;12.246;2022-11-15T10:27:09;9.17;;;7.10;;
3801;SDS011;1916;51.798;12.246;2022-11-15T10:29:20;9.57;;;6.93;;
3801;SDS011;1916;51.798;12.246;2022-11-15T10:31:28;9.70;;;5.70;;
3801;SDS011;1916;51.798;12.246;2022-11-15T10:33:37;7.73;;;5.30;;
3801;SDS011;1916;51.798;12.246;2022-11-15T10:35:41;12.67;;;5.93;;
3801;SDS011;1916;51.798;12.246;2022-11-15T10:37:44;8.40;;;6.23;;
3801;SDS011;1916;51.798;12.246;2022-11-15T10:39:56;6.60;;;4.70;;
3801;SDS011;1916;51.798;12.246;2022-11-15T10:42:16;7.97;;;6.20;;
3801;SDS011;1916;51.798;12.246;2022-11-15T10:44:30;16.70;;;5.40;;
3801;SDS011;1916;51.798;12.246;2022-11-15T10:46:33;10.67;;;5.87;;
3801;SDS011;1916;51.798;12.246;2022-11-15T10:48:52;7.47;;;4.93;;
3801;SDS011;1916;51.798;12.246;2022-11-15T10:50:54;12.33;;;5.50;;
3801;SDS011;1916;51.798;12.246;2022-11-15T10:52:56;7.10;;;5.30;;
3801;SDS011;1916;51.798;12.246;2022-11-15T10:55:01;8.37;;;5.80;;
3801;SDS011;1916;51.798;12.246;2022-11-15T10:57:07;14.43;;;5.97;;
3801;SDS011;1916;51.798;12.246;2022-11-15T10:59:30;7.23;;;5.00;;
3801;SDS011;1916;51.798;12.246;2022-11-15T11:01:47;8.80;;;5.90;;
3801;SDS011;1916;51.798;12.246;2022-11-15T11:04:03;8.93;;;6.40;;
3801;SDS011;1916;51.798;12.246;2022-11-15T11:06:11;6.60;;;4.97;;
3801;SDS011;1916;51.798;12.246;2022-11-15T11:10:17;7.43;;;5.40;;
3801;SDS011;1916;51.798;12.246;2022-11-15T11:12:42;6.70;;;5.17;;
3801;SDS011;1916;51.798;12.246;2022-11-15T11:14:43;10.63;;;5.90;;
3801;SDS011;1916;51.798;12.246;2022-11-15T11:16:50;9.70;;;5.97;;
3801;SDS011;1916;51.798;12.246;2022-11-15T11:21:09;6.43;;;4.50;;
3801;SDS011;1916;51.798;12.246;2022-11-15T11:23:57;8.77;;;5.50;;
3801;SDS011;1916;51.798;12.246;2022-11-15T11:33:31;7.70;;;5.07;;
3801;SDS011;1916;51.798;12.246;2022-11-15T11:36:18;7.33;;;5.23;;
3801;SDS011;1916;51.798;12.246;2022-11-15T11:47:39;5.13;;;4.40;;
3801;SDS011;1916;51.798;12.246;2022-11-15T11:51:50;6.63;;;4.90;;
3801;SDS011;1916;51.798;12.246;2022-11-15T11:54:09;6.30;;;4.50;;
3801;SDS011;1916;51.798;12.246;2022-11-15T11:56:23;6.33;;;5.20;;
3801;SDS011;1916;51.798;12.246;2022-11-15T11:58:35;5.97;;;4.57;;
3801;SDS011;1916;51.798;12.246;2022-11-15T12:00:41;5.33;;;4.10;;
3801;SDS011;1916;51.798;12.246;2022-11-15T12:02:50;5.40;;;4.90;;
3801;SDS011;1916;51.798;12.246;2022-11-15T12:05:27;8.07;;;5.10;;
3801;SDS011;1916;51.798;12.246;2022-11-15T12:07:33;5.97;;;4.87;;
3801;SDS011;1916;51.798;12.246;2022-11-15T12:09:39;5.60;;;4.80;;
3801;SDS011;1916;51.798;12.246;2022-11-15T12:16:31;9.43;;;5.37;;
3801;SDS011;1916;51.798;12.246;2022-11-15T12:18:34;6.60;;;5.63;;
3801;SDS011;1916;51.798;12.246;2022-11-15T12:20:37;6.40;;;5.00;;
3801;SDS011;1916;51.798;12.246;2022-11-15T12:25:13;9.93;;;4.93;;
3801;SDS011;1916;51.798;12.246;2022-11-15T12:27:20;11.23;;;4.80;;
3801;SDS011;1916;51.798;12.246;2022-11-15T12:29:36;8.43;;;4.20;;
3801;SDS011;1916;51.798;12.246;2022-11-15T12:31:47;9.33;;;4.50;;
3801;SDS011;1916;51.798;12.246;2022-11-15T12:33:54;6.63;;;4.60;;
3801;SDS011;1916;51.798;12.246;2022-11-15T12:36:08;6.80;;;4.93;;
3801;SDS011;1916;51.798;12.246;2022-11-15T12:38:12;9.43;;;4.50;;
3801;SDS011;1916;51.798;12.246;2022-11-15T12:55:31;7.00;;;4.97;;
3801;SDS011;1916;51.798;12.246;2022-11-15T12:57:35;8.40;;;5.00;;
3801;SDS011;1916;51.798;12.246;2022-11-15T13:01:57;6.00;;;4.30;;
3801;SDS011;1916;51.798;12.246;2022-11-15T13:06:39;7.93;;;4.80;;
3801;SDS011;1916;51.798;12.246;2022-11-15T13:08:43;5.83;;;4.47;;
3801;SDS011;1916;51.798;12.246;2022-11-15T13:10:49;7.87;;;4.43;;
3801;SDS011;1916;51.798;12.246;2022-11-15T13:12:52;5.93;;;4.03;;
3801;SDS011;1916;51.798;12.246;2022-11-15T13:15:01;6.77;;;4.60;;
3801;SDS011;1916;51.798;12.246;2022-11-15T13:17:36;7.70;;;4.67;;
3801;SDS011;1916;51.798;12.246;2022-11-15T13:19:45;5.90;;;4.30;;
3801;SDS011;1916;51.798;12.246;2022-11-15T13:21:49;5.60;;;3.93;;
3801;SDS011;1916;51.798;12.246;2022-11-15T13:24:13;5.87;;;4.20;;
3801;SDS011;1916;51.798;12.246;2022-11-15T13:26:16;6.00;;;4.27;;
3801;SDS011;1916;51.798;12.246;2022-11-15T13:28:21;6.23;;;4.33;;
3801;SDS011;1916;51.798;12.246;2022-11-15T13:30:29;5.90;;;4.53;;
3801;SDS011;1916;51.798;12.246;2022-11-15T13:32:32;8.13;;;4.27;;
3801;SDS011;1916;51.798;12.246;2022-11-15T13:34:34;6.30;;;4.33;;
3801;SDS011;1916;51.798;12.246;2022-11-15T13:36:54;5.87;;;4.30;;
3801;SDS011;1916;51.798;12.246;2022-11-15T13:39:02;7.30;;;3.97;;
3801;SDS011;1916;51.798;12.246;2022-11-15T13:41:27;5.23;;;3.70;;
3801;SDS011;1916;51.798;12.246;2022-11-15T13:43:33;6.97;;;4.90;;
3801;SDS011;1916;51.798;12.246;2022-11-15T13:45:36;4.70;;;4.20;;
3801;SDS011;1916;51.798;12.246;2022-11-15T13:47:39;6.23;;;4.07;;
3801;SDS011;1916;51.798;12.246;2022-11-15T13:49:41;7.00;;;4.60;;
3801;SDS011;1916;51.798;12.246;2022-11-15T13:51:47;4.70;;;4.20;;
3801;SDS011;1916;51.798;12.246;2022-11-15T13:54:07;5.27;;;4.20;;
3801;SDS011;1916;51.798;12.246;2022-11-15T13:56:12;5.37;;;4.00;;
3801;SDS011;1916;51.798;12.246;2022-11-15T13:58:15;11.23;;;4.43;;
3801;SDS011;1916;51.798;12.246;2022-11-15T14:00:30;4.50;;;3.63;;
3801;SDS011;1916;51.798;12.246;2022-11-15T14:02:36;17.20;;;4.37;;
3801;SDS011;1916;51.798;12.246;2022-11-15T14:04:39;9.00;;;4.30;;
3801;SDS011;1916;51.798;12.246;2022-11-15T14:06:49;12.13;;;4.57;;
3801;SDS011;1916;51.798;12.246;2022-11-15T14:11:17;5.73;;;4.40;;
3801;SDS011;1916;51.798;12.246;2022-11-15T14:13:28;12.80;;;4.53;;
3801;SDS011;1916;51.798;12.246;2022-11-15T14:15:33;7.03;;;4.90;;
3801;SDS011;1916;51.798;12.246;2022-11-15T14:17:36;5.20;;;4.50;;
3801;SDS011;1916;51.798;12.246;2022-11-15T14:19:39;5.80;;;4.37;;
3801;SDS011;1916;51.798;12.246;2022-11-15T14:22:28;5.77;;;4.80;;
3801;SDS011;1916;51.798;12.246;2022-11-15T14:24:17;9.13;;;4.60;;
3801;SDS011;1916;51.798;12.246;2022-11-15T14:28:30;7.97;;;4.57;;
3801;SDS011;1916;51.798;12.246;2022-11-15T14:30:38;6.17;;;4.80;;
3801;SDS011;1916;51.798;12.246;2022-11-15T14:32:46;6.47;;;4.67;;
3801;SDS011;1916;51.798;12.246;2022-11-15T14:34:53;5.30;;;4.60;;
3801;SDS011;1916;51.798;12.246;2022-11-15T14:36:56;8.67;;;4.43;;
3801;SDS011;1916;51.798;12.246;2022-11-15T14:38:58;6.80;;;5.00;;
3801;SDS011;1916;51.798;12.246;2022-11-15T14:41:01;5.60;;;4.43;;
3801;SDS011;1916;51.798;12.246;2022-11-15T14:43:03;11.23;;;5.13;;
3801;SDS011;1916;51.798;12.246;2022-11-15T14:45:11;6.70;;;4.90;;
3801;SDS011;1916;51.798;12.246;2022-11-15T14:47:15;10.80;;;6.10;;
3801;SDS011;1916;51.798;12.246;2022-11-15T14:49:17;6.37;;;4.90;;
3801;SDS011;1916;51.798;12.246;2022-11-15T14:51:19;8.33;;;4.87;;
3801;SDS011;1916;51.798;12.246;2022-11-15T14:53:21;10.63;;;5.63;;
3801;SDS011;1916;51.798;12.246;2022-11-15T14:55:24;6.97;;;5.20;;
3801;SDS011;1916;51.798;12.246;2022-11-15T14:57:29;7.03;;;4.83;;
3801;SDS011;1916;51.798;12.246;2022-11-15T14:59:31;7.10;;;5.47;;
3801;SDS011;1916;51.798;12.246;2022-11-15T15:01:33;9.23;;;4.90;;
3801;SDS011;1916;51.798;12.246;2022-11-15T15:03:35;12.10;;;5.50;;
3801;SDS011;1916;51.798;12.246;2022-11-15T15:05:39;14.97;;;7.70;;
3801;SDS011;1916;51.798;12.246;2022-11-15T15:07:43;7.30;;;4.73;;
3801;SDS011;1916;51.798;12.246;2022-11-15T15:09:45;9.80;;;5.83;;
3801;SDS011;1916;51.798;12.246;2022-11-15T15:11:47;9.93;;;6.17;;
3801;SDS011;1916;51.798;12.246;2022-11-15T15:13:50;16.13;;;6.17;;
3801;SDS011;1916;51.798;12.246;2022-11-15T15:15:52;9.30;;;5.70;;
3801;SDS011;1916;51.798;12.246;2022-11-15T15:17:54;12.43;;;6.00;;